sensor_id;sensor_type;location;lat;lon;timestamp;P1;durP1;ratioP1;P2;durP2;ratioP2
19358;SDS011;9815;52.334;20.890;2023-08-21T00:01:57;70.00;;;64.43;;
19358;SDS011;9815;52.334;20.890;2023-08-21T00:04:26;73.93;;;68.15;;
19358;SDS011;9815;52.334;20.890;2023-08-21T00:06:54;75.00;;;69.22;;
19358;SDS011;9815;52.334;20.890;2023-08-21T00:09:24;69.30;;;64.00;;
19358;SDS011;9815;52.334;20.890;2023-08-21T00:11:53;63.60;;;57.70;;
19358;SDS011;9815;52.334;20.890;2023-08-21T00:14:21;53.78;;;49.00;;
19358;SDS011;9815;52.334;20.890;2023-08-21T00:16:49;51.60;;;46.83;;
19358;SDS011;9815;52.334;20.890;2023-08-21T00:19:18;47.10;;;42.85;;
19358;SDS011;9815;52.334;20.890;2023-08-21T00:21:46;50.88;;;46.28;;
19358;SDS011;9815;52.334;20.890;2023-08-21T00:24:15;56.53;;;51.55;;
19358;SDS011;9815;52.334;20.890;2023-08-21T00:26:44;53.10;;;48.67;;
19358;SDS011;9815;52.334;20.890;2023-08-21T00:29:13;51.47;;;46.90;;
19358;SDS011;9815;52.334;20.890;2023-08-21T00:31:41;49.88;;;45.42;;
19358;SDS011;9815;52.334;20.890;2023-08-21T00:34:09;53.33;;;48.50;;
19358;SDS011;9815;52.334;20.890;2023-08-21T00:36:37;46.67;;;42.33;;
19358;SDS011;9815;52.334;20.890;2023-08-21T00:39:06;49.45;;;45.15;;
19358;SDS011;9815;52.334;20.890;2023-08-21T00:41:34;51.75;;;47.25;;
19358;SDS011;9815;52.334;20.890;2023-08-21T00:44:04;46.20;;;41.93;;
19358;SDS011;9815;52.334;20.890;2023-08-21T00:46:32;48.50;;;43.80;;
19358;SDS011;9815;52.334;20.890;2023-08-21T00:49:00;45.87;;;41.57;;
19358;SDS011;9815;52.334;20.890;2023-08-21T00:51:29;50.27;;;45.50;;
19358;SDS011;9815;52.334;20.890;2023-08-21T00:53:58;50.53;;;45.87;;
19358;SDS011;9815;52.334;20.890;2023-08-21T00:56:26;47.22;;;42.90;;
19358;SDS011;9815;52.334;20.890;2023-08-21T00:58:55;51.72;;;46.90;;
19358;SDS011;9815;52.334;20.890;2023-08-21T01:01:25;57.15;;;52.15;;
19358;SDS011;9815;52.334;20.890;2023-08-21T01:03:56;63.73;;;58.13;;
19358;SDS011;9815;52.334;20.890;2023-08-21T01:06:24;50.17;;;45.65;;
19358;SDS011;9815;52.334;20.890;2023-08-21T01:08:54;45.70;;;41.47;;
19358;SDS011;9815;52.334;20.890;2023-08-21T01:11:30;46.07;;;41.47;;
19358;SDS011;9815;52.334;20.890;2023-08-21T01:14:05;43.63;;;38.83;;
19358;SDS011;9815;52.334;20.890;2023-08-21T01:16:42;45.97;;;41.03;;
19358;SDS011;9815;52.334;20.890;2023-08-21T01:19:17;40.90;;;36.72;;
19358;SDS011;9815;52.334;20.890;2023-08-21T01:21:54;45.43;;;41.00;;
19358;SDS011;9815;52.334;20.890;2023-08-21T01:24:24;45.53;;;41.07;;
19358;SDS011;9815;52.334;20.890;2023-08-21T01:26:52;48.67;;;43.83;;
19358;SDS011;9815;52.334;20.890;2023-08-21T01:29:20;48.37;;;43.43;;
19358;SDS011;9815;52.334;20.890;2023-08-21T01:31:50;48.73;;;43.90;;
19358;SDS011;9815;52.334;20.890;2023-08-21T01:34:22;48.63;;;43.63;;
19358;SDS011;9815;52.334;20.890;2023-08-21T01:36:51;42.63;;;37.97;;
19358;SDS011;9815;52.334;20.890;2023-08-21T01:39:20;43.00;;;38.43;;
19358;SDS011;9815;52.334;20.890;2023-08-21T01:41:50;46.40;;;42.00;;
19358;SDS011;9815;52.334;20.890;2023-08-21T01:44:20;45.93;;;41.30;;
19358;SDS011;9815;52.334;20.890;2023-08-21T01:46:48;46.40;;;41.67;;
19358;SDS011;9815;52.334;20.890;2023-08-21T01:49:16;47.13;;;42.30;;
19358;SDS011;9815;52.334;20.890;2023-08-21T01:51:46;45.50;;;40.83;;
19358;SDS011;9815;52.334;20.890;2023-08-21T01:54:14;47.10;;;42.40;;
19358;SDS011;9815;52.334;20.890;2023-08-21T01:56:42;48.67;;;42.90;;
19358;SDS011;9815;52.334;20.890;2023-08-21T01:59:12;47.57;;;42.07;;
19358;SDS011;9815;52.334;20.890;2023-08-21T02:01:40;46.30;;;41.80;;
19358;SDS011;9815;52.334;20.890;2023-08-21T02:04:08;46.97;;;42.07;;
19358;SDS011;9815;52.334;20.890;2023-08-21T02:06:37;47.33;;;42.83;;
19358;SDS011;9815;52.334;20.890;2023-08-21T02:09:06;45.70;;;41.10;;
19358;SDS011;9815;52.334;20.890;2023-08-21T02:11:34;46.10;;;41.63;;
19358;SDS011;9815;52.334;20.890;2023-08-21T02:14:02;42.17;;;37.90;;
19358;SDS011;9815;52.334;20.890;2023-08-21T02:16:32;43.97;;;39.40;;
19358;SDS011;9815;52.334;20.890;2023-08-21T02:19:00;44.20;;;39.80;;
19358;SDS011;9815;52.334;20.890;2023-08-21T02:21:29;42.70;;;38.37;;
19358;SDS011;9815;52.334;20.890;2023-08-21T02:23:57;42.37;;;37.27;;
19358;SDS011;9815;52.334;20.890;2023-08-21T02:26:25;41.20;;;36.97;;
19358;SDS011;9815;52.334;20.890;2023-08-21T02:28:53;43.33;;;39.10;;
19358;SDS011;9815;52.334;20.890;2023-08-21T02:31:22;45.20;;;40.73;;
19358;SDS011;9815;52.334;20.890;2023-08-21T02:33:51;44.50;;;39.83;;
19358;SDS011;9815;52.334;20.890;2023-08-21T02:36:20;41.63;;;37.20;;
19358;SDS011;9815;52.334;20.890;2023-08-21T02:38:49;43.23;;;38.80;;
19358;SDS011;9815;52.334;20.890;2023-08-21T02:41:17;40.60;;;36.47;;
19358;SDS011;9815;52.334;20.890;2023-08-21T02:43:45;41.83;;;36.83;;
19358;SDS011;9815;52.334;20.890;2023-08-21T02:46:14;41.60;;;37.13;;
19358;SDS011;9815;52.334;20.890;2023-08-21T02:48:43;42.03;;;37.50;;
19358;SDS011;9815;52.334;20.890;2023-08-21T02:51:13;40.50;;;35.60;;
19358;SDS011;9815;52.334;20.890;2023-08-21T02:53:42;40.80;;;36.37;;
19358;SDS011;9815;52.334;20.890;2023-08-21T02:56:10;40.60;;;36.27;;
19358;SDS011;9815;52.334;20.890;2023-08-21T02:58:38;43.20;;;37.20;;
19358;SDS011;9815;52.334;20.890;2023-08-21T03:01:06;43.67;;;37.23;;
19358;SDS011;9815;52.334;20.890;2023-08-21T03:03:35;40.50;;;36.13;;
19358;SDS011;9815;52.334;20.890;2023-08-21T03:06:03;43.83;;;37.23;;
19358;SDS011;9815;52.334;20.890;2023-08-21T03:08:33;45.47;;;36.73;;
19358;SDS011;9815;52.334;20.890;2023-08-21T03:11:02;40.83;;;36.47;;
19358;SDS011;9815;52.334;20.890;2023-08-21T03:13:30;42.53;;;37.33;;
19358;SDS011;9815;52.334;20.890;2023-08-21T03:15:58;44.80;;;40.00;;
19358;SDS011;9815;52.334;20.890;2023-08-21T03:18:29;46.50;;;41.40;;
19358;SDS011;9815;52.334;20.890;2023-08-21T03:20:59;44.93;;;40.03;;
19358;SDS011;9815;52.334;20.890;2023-08-21T03:23:27;44.13;;;39.50;;
19358;SDS011;9815;52.334;20.890;2023-08-21T03:25:57;42.93;;;38.53;;
19358;SDS011;9815;52.334;20.890;2023-08-21T03:28:26;46.53;;;39.63;;
19358;SDS011;9815;52.334;20.890;2023-08-21T03:30:54;46.60;;;41.73;;
19358;SDS011;9815;52.334;20.890;2023-08-21T03:33:22;44.27;;;39.47;;
19358;SDS011;9815;52.334;20.890;2023-08-21T03:35:53;46.07;;;40.13;;
19358;SDS011;9815;52.334;20.890;2023-08-21T03:38:23;44.60;;;39.73;;
19358;SDS011;9815;52.334;20.890;2023-08-21T03:40:52;43.17;;;38.60;;
19358;SDS011;9815;52.334;20.890;2023-08-21T03:43:22;46.40;;;37.80;;
19358;SDS011;9815;52.334;20.890;2023-08-21T03:45:51;46.00;;;37.07;;
19358;SDS011;9815;52.334;20.890;2023-08-21T03:48:19;48.70;;;38.27;;
19358;SDS011;9815;52.334;20.890;2023-08-21T03:50:49;42.77;;;37.63;;
19358;SDS011;9815;52.334;20.890;2023-08-21T03:53:17;44.00;;;39.20;;
19358;SDS011;9815;52.334;20.890;2023-08-21T03:55:46;43.77;;;37.83;;
19358;SDS011;9815;52.334;20.890;2023-08-21T03:58:14;43.47;;;38.77;;
19358;SDS011;9815;52.334;20.890;2023-08-21T04:00:44;47.90;;;39.97;;
19358;SDS011;9815;52.334;20.890;2023-08-21T04:03:13;44.37;;;39.57;;
19358;SDS011;9815;52.334;20.890;2023-08-21T04:05:41;46.53;;;39.77;;
19358;SDS011;9815;52.334;20.890;2023-08-21T04:08:10;48.97;;;38.97;;
19358;SDS011;9815;52.334;20.890;2023-08-21T04:10:38;42.60;;;37.77;;
19358;SDS011;9815;52.334;20.890;2023-08-21T04:13:08;46.30;;;39.20;;
19358;SDS011;9815;52.334;20.890;2023-08-21T04:15:36;47.43;;;40.03;;
19358;SDS011;9815;52.334;20.890;2023-08-21T04:18:06;43.93;;;38.60;;
19358;SDS011;9815;52.334;20.890;2023-08-21T04:20:35;48.57;;;40.27;;
19358;SDS011;9815;52.334;20.890;2023-08-21T04:23:06;50.53;;;41.10;;
19358;SDS011;9815;52.334;20.890;2023-08-21T04:25:35;48.07;;;41.67;;
19358;SDS011;9815;52.334;20.890;2023-08-21T04:28:03;46.03;;;41.03;;
19358;SDS011;9815;52.334;20.890;2023-08-21T04:30:32;49.50;;;42.80;;
19358;SDS011;9815;52.334;20.890;2023-08-21T04:33:00;51.13;;;42.23;;
19358;SDS011;9815;52.334;20.890;2023-08-21T04:35:30;49.20;;;42.93;;
19358;SDS011;9815;52.334;20.890;2023-08-21T04:38:05;50.87;;;42.43;;
19358;SDS011;9815;52.334;20.890;2023-08-21T04:40:34;49.27;;;43.10;;
19358;SDS011;9815;52.334;20.890;2023-08-21T04:43:02;48.30;;;42.43;;
19358;SDS011;9815;52.334;20.890;2023-08-21T04:45:31;51.77;;;45.40;;
19358;SDS011;9815;52.334;20.890;2023-08-21T04:47:59;50.40;;;45.07;;
19358;SDS011;9815;52.334;20.890;2023-08-21T04:50:28;52.00;;;44.53;;
19358;SDS011;9815;52.334;20.890;2023-08-21T04:52:57;52.67;;;43.83;;
19358;SDS011;9815;52.334;20.890;2023-08-21T04:55:26;53.03;;;43.50;;
19358;SDS011;9815;52.334;20.890;2023-08-21T04:57:55;46.80;;;41.70;;
19358;SDS011;9815;52.334;20.890;2023-08-21T05:00:23;46.23;;;41.20;;
19358;SDS011;9815;52.334;20.890;2023-08-21T05:02:52;43.37;;;38.70;;
19358;SDS011;9815;52.334;20.890;2023-08-21T05:05:21;44.80;;;39.67;;
19358;SDS011;9815;52.334;20.890;2023-08-21T05:07:53;47.87;;;39.30;;
19358;SDS011;9815;52.334;20.890;2023-08-21T05:10:22;49.93;;;39.47;;
19358;SDS011;9815;52.334;20.890;2023-08-21T05:12:50;43.27;;;37.90;;
19358;SDS011;9815;52.334;20.890;2023-08-21T05:15:20;46.60;;;35.63;;
19358;SDS011;9815;52.334;20.890;2023-08-21T05:17:48;44.27;;;37.40;;
19358;SDS011;9815;52.334;20.890;2023-08-21T05:20:18;44.63;;;36.10;;
19358;SDS011;9815;52.334;20.890;2023-08-21T05:22:47;44.67;;;37.80;;
19358;SDS011;9815;52.334;20.890;2023-08-21T05:25:17;49.20;;;38.10;;
19358;SDS011;9815;52.334;20.890;2023-08-21T05:27:45;49.80;;;44.70;;
19358;SDS011;9815;52.334;20.890;2023-08-21T05:30:14;50.20;;;42.90;;
19358;SDS011;9815;52.334;20.890;2023-08-21T05:32:42;46.40;;;41.33;;
19358;SDS011;9815;52.334;20.890;2023-08-21T05:35:10;50.17;;;39.50;;
19358;SDS011;9815;52.334;20.890;2023-08-21T05:37:41;45.33;;;40.33;;
19358;SDS011;9815;52.334;20.890;2023-08-21T05:40:10;44.90;;;40.00;;
19358;SDS011;9815;52.334;20.890;2023-08-21T05:42:40;46.20;;;41.37;;
19358;SDS011;9815;52.334;20.890;2023-08-21T05:45:08;51.53;;;46.30;;
19358;SDS011;9815;52.334;20.890;2023-08-21T05:47:37;51.30;;;45.90;;
19358;SDS011;9815;52.334;20.890;2023-08-21T05:50:06;52.37;;;47.03;;
19358;SDS011;9815;52.334;20.890;2023-08-21T05:52:37;54.47;;;49.07;;
19358;SDS011;9815;52.334;20.890;2023-08-21T05:55:09;58.37;;;52.80;;
19358;SDS011;9815;52.334;20.890;2023-08-21T05:57:37;58.20;;;52.40;;
19358;SDS011;9815;52.334;20.890;2023-08-21T06:00:07;51.90;;;46.53;;
19358;SDS011;9815;52.334;20.890;2023-08-21T06:02:42;52.33;;;46.17;;
19358;SDS011;9815;52.334;20.890;2023-08-21T06:05:24;48.20;;;43.23;;
19358;SDS011;9815;52.334;20.890;2023-08-21T06:07:52;58.67;;;52.73;;
19358;SDS011;9815;52.334;20.890;2023-08-21T06:10:20;65.27;;;59.07;;
19358;SDS011;9815;52.334;20.890;2023-08-21T06:12:50;67.60;;;61.13;;
19358;SDS011;9815;52.334;20.890;2023-08-21T06:15:19;67.25;;;60.92;;
19358;SDS011;9815;52.334;20.890;2023-08-21T06:17:47;69.93;;;63.40;;
19358;SDS011;9815;52.334;20.890;2023-08-21T06:20:15;66.13;;;60.27;;
19358;SDS011;9815;52.334;20.890;2023-08-21T06:22:46;67.63;;;61.60;;
19358;SDS011;9815;52.334;20.890;2023-08-21T06:25:14;68.53;;;62.13;;
19358;SDS011;9815;52.334;20.890;2023-08-21T06:27:43;74.18;;;67.72;;
19358;SDS011;9815;52.334;20.890;2023-08-21T06:30:26;68.47;;;62.60;;
19358;SDS011;9815;52.334;20.890;2023-08-21T06:32:54;75.32;;;68.63;;
19358;SDS011;9815;52.334;20.890;2023-08-21T06:35:25;66.57;;;60.85;;
19358;SDS011;9815;52.334;20.890;2023-08-21T06:37:53;76.60;;;70.13;;
19358;SDS011;9815;52.334;20.890;2023-08-21T06:40:22;82.53;;;75.95;;
19358;SDS011;9815;52.334;20.890;2023-08-21T06:42:50;87.38;;;80.57;;
19358;SDS011;9815;52.334;20.890;2023-08-21T06:45:23;75.28;;;68.88;;
19358;SDS011;9815;52.334;20.890;2023-08-21T06:47:53;70.20;;;64.30;;
19358;SDS011;9815;52.334;20.890;2023-08-21T06:50:22;75.20;;;68.70;;
19358;SDS011;9815;52.334;20.890;2023-08-21T06:52:50;90.22;;;82.72;;
19358;SDS011;9815;52.334;20.890;2023-08-21T06:55:19;81.40;;;74.72;;
19358;SDS011;9815;52.334;20.890;2023-08-21T06:57:47;57.53;;;52.38;;
19358;SDS011;9815;52.334;20.890;2023-08-21T07:00:15;46.10;;;41.47;;
19358;SDS011;9815;52.334;20.890;2023-08-21T07:02:44;47.20;;;42.40;;
19358;SDS011;9815;52.334;20.890;2023-08-21T07:05:14;53.70;;;48.25;;
19358;SDS011;9815;52.334;20.890;2023-08-21T07:07:44;53.97;;;49.38;;
19358;SDS011;9815;52.334;20.890;2023-08-21T07:10:12;50.95;;;46.42;;
19358;SDS011;9815;52.334;20.890;2023-08-21T07:12:40;53.67;;;49.17;;
19358;SDS011;9815;52.334;20.890;2023-08-21T07:15:09;50.33;;;45.33;;
19358;SDS011;9815;52.334;20.890;2023-08-21T07:17:38;52.03;;;47.58;;
19358;SDS011;9815;52.334;20.890;2023-08-21T07:20:06;49.22;;;44.88;;
19358;SDS011;9815;52.334;20.890;2023-08-21T07:22:37;47.15;;;43.20;;
19358;SDS011;9815;52.334;20.890;2023-08-21T07:25:06;37.13;;;33.47;;
19358;SDS011;9815;52.334;20.890;2023-08-21T07:27:34;38.38;;;34.63;;
19358;SDS011;9815;52.334;20.890;2023-08-21T07:30:03;36.53;;;33.00;;
19358;SDS011;9815;52.334;20.890;2023-08-21T07:32:32;52.08;;;47.53;;
19358;SDS011;9815;52.334;20.890;2023-08-21T07:35:00;67.60;;;62.33;;
19358;SDS011;9815;52.334;20.890;2023-08-21T07:37:29;64.10;;;58.92;;
19358;SDS011;9815;52.334;20.890;2023-08-21T07:39:58;68.10;;;62.65;;
19358;SDS011;9815;52.334;20.890;2023-08-21T07:42:27;61.20;;;56.30;;
19358;SDS011;9815;52.334;20.890;2023-08-21T07:44:55;64.28;;;59.10;;
19358;SDS011;9815;52.334;20.890;2023-08-21T07:47:24;60.05;;;55.13;;
19358;SDS011;9815;52.334;20.890;2023-08-21T07:49:55;54.50;;;49.30;;
19358;SDS011;9815;52.334;20.890;2023-08-21T07:52:25;62.03;;;56.90;;
19358;SDS011;9815;52.334;20.890;2023-08-21T07:54:53;45.03;;;40.35;;
19358;SDS011;9815;52.334;20.890;2023-08-21T07:57:23;33.95;;;30.63;;
19358;SDS011;9815;52.334;20.890;2023-08-21T07:59:51;50.65;;;46.40;;
19358;SDS011;9815;52.334;20.890;2023-08-21T08:02:21;46.65;;;42.65;;
19358;SDS011;9815;52.334;20.890;2023-08-21T08:04:50;46.45;;;42.63;;
19358;SDS011;9815;52.334;20.890;2023-08-21T08:07:19;42.10;;;38.58;;
19358;SDS011;9815;52.334;20.890;2023-08-21T08:09:47;37.40;;;34.10;;
19358;SDS011;9815;52.334;20.890;2023-08-21T08:12:18;37.83;;;34.40;;
19358;SDS011;9815;52.334;20.890;2023-08-21T08:14:49;33.22;;;30.20;;
19358;SDS011;9815;52.334;20.890;2023-08-21T08:17:17;27.45;;;24.90;;
19358;SDS011;9815;52.334;20.890;2023-08-21T08:19:45;31.77;;;28.83;;
19358;SDS011;9815;52.334;20.890;2023-08-21T08:22:14;30.52;;;27.73;;
19358;SDS011;9815;52.334;20.890;2023-08-21T08:24:42;23.38;;;20.98;;
19358;SDS011;9815;52.334;20.890;2023-08-21T08:27:10;22.25;;;18.30;;
19358;SDS011;9815;52.334;20.890;2023-08-21T08:29:39;20.85;;;17.73;;
19358;SDS011;9815;52.334;20.890;2023-08-21T08:32:09;21.08;;;17.65;;
19358;SDS011;9815;52.334;20.890;2023-08-21T08:34:37;18.10;;;16.27;;
19358;SDS011;9815;52.334;20.890;2023-08-21T08:37:05;18.40;;;16.02;;
19358;SDS011;9815;52.334;20.890;2023-08-21T08:39:33;19.10;;;16.75;;
19358;SDS011;9815;52.334;20.890;2023-08-21T08:42:02;17.98;;;16.08;;
19358;SDS011;9815;52.334;20.890;2023-08-21T08:44:33;20.27;;;16.70;;
19358;SDS011;9815;52.334;20.890;2023-08-21T08:47:03;15.95;;;14.02;;
19358;SDS011;9815;52.334;20.890;2023-08-21T08:49:33;21.33;;;14.90;;
19358;SDS011;9815;52.334;20.890;2023-08-21T08:52:02;18.92;;;15.93;;
19358;SDS011;9815;52.334;20.890;2023-08-21T08:54:32;20.98;;;14.93;;
19358;SDS011;9815;52.334;20.890;2023-08-21T08:57:02;18.90;;;15.50;;
19358;SDS011;9815;52.334;20.890;2023-08-21T08:59:30;16.08;;;14.32;;
19358;SDS011;9815;52.334;20.890;2023-08-21T09:01:58;16.75;;;14.00;;
19358;SDS011;9815;52.334;20.890;2023-08-21T09:04:27;18.42;;;13.43;;
19358;SDS011;9815;52.334;20.890;2023-08-21T09:07:06;14.05;;;12.45;;
19358;SDS011;9815;52.334;20.890;2023-08-21T09:09:38;16.90;;;11.60;;
19358;SDS011;9815;52.334;20.890;2023-08-21T09:12:09;16.58;;;11.95;;
19358;SDS011;9815;52.334;20.890;2023-08-21T09:14:39;13.82;;;11.32;;
19358;SDS011;9815;52.334;20.890;2023-08-21T09:17:08;15.15;;;11.65;;
19358;SDS011;9815;52.334;20.890;2023-08-21T09:19:37;16.38;;;11.43;;
19358;SDS011;9815;52.334;20.890;2023-08-21T09:22:10;14.57;;;11.13;;
19358;SDS011;9815;52.334;20.890;2023-08-21T09:24:40;13.73;;;10.50;;
19358;SDS011;9815;52.334;20.890;2023-08-21T09:27:26;11.88;;;9.52;;
19358;SDS011;9815;52.334;20.890;2023-08-21T09:29:55;10.95;;;8.75;;
19358;SDS011;9815;52.334;20.890;2023-08-21T09:32:24;9.18;;;8.02;;
19358;SDS011;9815;52.334;20.890;2023-08-21T09:34:53;11.98;;;8.18;;
19358;SDS011;9815;52.334;20.890;2023-08-21T09:37:23;10.38;;;7.10;;
19358;SDS011;9815;52.334;20.890;2023-08-21T09:40:00;8.27;;;6.95;;
19358;SDS011;9815;52.334;20.890;2023-08-21T09:42:33;9.38;;;7.60;;
19358;SDS011;9815;52.334;20.890;2023-08-21T09:45:02;9.68;;;6.93;;
19358;SDS011;9815;52.334;20.890;2023-08-21T09:47:32;12.95;;;7.68;;
19358;SDS011;9815;52.334;20.890;2023-08-21T09:50:00;9.52;;;6.90;;
19358;SDS011;9815;52.334;20.890;2023-08-21T09:52:30;10.10;;;6.35;;
19358;SDS011;9815;52.334;20.890;2023-08-21T09:54:59;10.18;;;6.35;;
19358;SDS011;9815;52.334;20.890;2023-08-21T09:57:29;12.65;;;7.20;;
19358;SDS011;9815;52.334;20.890;2023-08-21T10:00:00;7.47;;;6.03;;
19358;SDS011;9815;52.334;20.890;2023-08-21T10:02:40;6.63;;;5.13;;
19358;SDS011;9815;52.334;20.890;2023-08-21T10:05:10;8.60;;;6.55;;
19358;SDS011;9815;52.334;20.890;2023-08-21T10:07:40;8.27;;;5.57;;
19358;SDS011;9815;52.334;20.890;2023-08-21T10:10:09;8.15;;;5.90;;
19358;SDS011;9815;52.334;20.890;2023-08-21T10:12:39;8.00;;;6.07;;
19358;SDS011;9815;52.334;20.890;2023-08-21T10:15:08;8.15;;;6.30;;
19358;SDS011;9815;52.334;20.890;2023-08-21T10:17:37;8.98;;;5.03;;
19358;SDS011;9815;52.334;20.890;2023-08-21T10:20:07;6.68;;;4.60;;
19358;SDS011;9815;52.334;20.890;2023-08-21T10:22:42;4.95;;;4.32;;
19358;SDS011;9815;52.334;20.890;2023-08-21T10:25:15;7.10;;;5.00;;
19358;SDS011;9815;52.334;20.890;2023-08-21T10:27:46;6.22;;;4.38;;
19358;SDS011;9815;52.334;20.890;2023-08-21T10:30:19;8.10;;;5.57;;
19358;SDS011;9815;52.334;20.890;2023-08-21T10:32:49;12.05;;;6.85;;
19358;SDS011;9815;52.334;20.890;2023-08-21T10:35:20;9.02;;;6.72;;
19358;SDS011;9815;52.334;20.890;2023-08-21T10:38:07;9.50;;;6.60;;
19358;SDS011;9815;52.334;20.890;2023-08-21T10:40:40;7.93;;;6.43;;
19358;SDS011;9815;52.334;20.890;2023-08-21T10:43:38;8.90;;;6.25;;
19358;SDS011;9815;52.334;20.890;2023-08-21T10:46:07;8.48;;;6.53;;
19358;SDS011;9815;52.334;20.890;2023-08-21T10:48:36;6.60;;;5.43;;
19358;SDS011;9815;52.334;20.890;2023-08-21T10:51:05;9.20;;;5.43;;
19358;SDS011;9815;52.334;20.890;2023-08-21T10:53:36;8.70;;;5.40;;
19358;SDS011;9815;52.334;20.890;2023-08-21T10:56:06;6.80;;;4.70;;
19358;SDS011;9815;52.334;20.890;2023-08-21T10:58:34;5.57;;;4.63;;
19358;SDS011;9815;52.334;20.890;2023-08-21T11:01:06;6.25;;;4.63;;
19358;SDS011;9815;52.334;20.890;2023-08-21T11:03:37;8.68;;;5.03;;
19358;SDS011;9815;52.334;20.890;2023-08-21T11:06:07;6.57;;;5.00;;
19358;SDS011;9815;52.334;20.890;2023-08-21T11:08:38;6.90;;;4.88;;
19358;SDS011;9815;52.334;20.890;2023-08-21T11:11:06;7.05;;;5.15;;
19358;SDS011;9815;52.334;20.890;2023-08-21T11:13:35;5.68;;;3.90;;
19358;SDS011;9815;52.334;20.890;2023-08-21T11:16:04;5.25;;;2.80;;
19358;SDS011;9815;52.334;20.890;2023-08-21T11:18:35;5.45;;;2.92;;
19358;SDS011;9815;52.334;20.890;2023-08-21T11:21:05;7.32;;;3.28;;
19358;SDS011;9815;52.334;20.890;2023-08-21T11:23:35;3.65;;;2.58;;
19358;SDS011;9815;52.334;20.890;2023-08-21T11:26:06;6.05;;;3.22;;
19358;SDS011;9815;52.334;20.890;2023-08-21T11:28:47;5.82;;;3.50;;
19358;SDS011;9815;52.334;20.890;2023-08-21T11:31:16;4.50;;;3.15;;
19358;SDS011;9815;52.334;20.890;2023-08-21T11:33:49;7.80;;;3.45;;
19358;SDS011;9815;52.334;20.890;2023-08-21T11:36:18;5.20;;;3.10;;
19358;SDS011;9815;52.334;20.890;2023-08-21T11:38:58;6.57;;;3.40;;
19358;SDS011;9815;52.334;20.890;2023-08-21T11:41:27;5.43;;;3.42;;
19358;SDS011;9815;52.334;20.890;2023-08-21T11:44:01;7.85;;;3.65;;
19358;SDS011;9815;52.334;20.890;2023-08-21T11:46:30;6.35;;;3.63;;
19358;SDS011;9815;52.334;20.890;2023-08-21T11:48:59;5.18;;;3.63;;
19358;SDS011;9815;52.334;20.890;2023-08-21T11:51:28;7.88;;;3.40;;
19358;SDS011;9815;52.334;20.890;2023-08-21T11:54:06;4.07;;;3.03;;
19358;SDS011;9815;52.334;20.890;2023-08-21T11:56:36;4.05;;;3.08;;
19358;SDS011;9815;52.334;20.890;2023-08-21T11:59:08;4.00;;;3.28;;
19358;SDS011;9815;52.334;20.890;2023-08-21T12:01:36;6.22;;;3.15;;
19358;SDS011;9815;52.334;20.890;2023-08-21T12:04:13;6.50;;;3.00;;
19358;SDS011;9815;52.334;20.890;2023-08-21T12:06:43;5.45;;;3.10;;
19358;SDS011;9815;52.334;20.890;2023-08-21T12:09:13;5.60;;;3.15;;
19358;SDS011;9815;52.334;20.890;2023-08-21T12:11:41;4.75;;;3.03;;
19358;SDS011;9815;52.334;20.890;2023-08-21T12:14:09;4.30;;;3.03;;
19358;SDS011;9815;52.334;20.890;2023-08-21T12:16:38;7.00;;;2.70;;
19358;SDS011;9815;52.334;20.890;2023-08-21T12:19:06;3.08;;;2.50;;
19358;SDS011;9815;52.334;20.890;2023-08-21T12:21:36;5.28;;;2.75;;
19358;SDS011;9815;52.334;20.890;2023-08-21T12:24:04;5.18;;;2.67;;
19358;SDS011;9815;52.334;20.890;2023-08-21T12:26:35;4.07;;;2.85;;
19358;SDS011;9815;52.334;20.890;2023-08-21T12:29:16;3.85;;;2.78;;
19358;SDS011;9815;52.334;20.890;2023-08-21T12:31:48;4.65;;;2.72;;
19358;SDS011;9815;52.334;20.890;2023-08-21T12:34:17;3.08;;;2.50;;
19358;SDS011;9815;52.334;20.890;2023-08-21T12:36:46;3.08;;;2.40;;
19358;SDS011;9815;52.334;20.890;2023-08-21T12:39:14;2.60;;;1.98;;
19358;SDS011;9815;52.334;20.890;2023-08-21T12:41:45;3.78;;;2.17;;
19358;SDS011;9815;52.334;20.890;2023-08-21T12:44:14;6.15;;;1.95;;
19358;SDS011;9815;52.334;20.890;2023-08-21T12:46:43;3.40;;;2.22;;
19358;SDS011;9815;52.334;20.890;2023-08-21T12:49:11;4.35;;;2.15;;
19358;SDS011;9815;52.334;20.890;2023-08-21T12:51:40;5.75;;;2.40;;
19358;SDS011;9815;52.334;20.890;2023-08-21T12:54:08;6.32;;;2.30;;
19358;SDS011;9815;52.334;20.890;2023-08-21T12:56:36;8.52;;;2.30;;
19358;SDS011;9815;52.334;20.890;2023-08-21T12:59:09;7.53;;;2.40;;
19358;SDS011;9815;52.334;20.890;2023-08-21T13:01:43;3.95;;;2.20;;
19358;SDS011;9815;52.334;20.890;2023-08-21T13:04:11;4.45;;;2.00;;
19358;SDS011;9815;52.334;20.890;2023-08-21T13:06:39;4.68;;;2.10;;
19358;SDS011;9815;52.334;20.890;2023-08-21T13:09:08;3.40;;;1.98;;
19358;SDS011;9815;52.334;20.890;2023-08-21T13:11:36;2.85;;;2.00;;
19358;SDS011;9815;52.334;20.890;2023-08-21T13:14:05;4.13;;;2.00;;
19358;SDS011;9815;52.334;20.890;2023-08-21T13:16:34;2.70;;;2.13;;
19358;SDS011;9815;52.334;20.890;2023-08-21T13:19:03;6.68;;;2.00;;
19358;SDS011;9815;52.334;20.890;2023-08-21T13:21:31;6.32;;;2.33;;
19358;SDS011;9815;52.334;20.890;2023-08-21T13:23:59;4.57;;;2.00;;
19358;SDS011;9815;52.334;20.890;2023-08-21T13:26:29;3.22;;;2.03;;
19358;SDS011;9815;52.334;20.890;2023-08-21T13:28:59;5.15;;;2.15;;
19358;SDS011;9815;52.334;20.890;2023-08-21T13:31:27;3.63;;;1.83;;
19358;SDS011;9815;52.334;20.890;2023-08-21T13:33:58;3.88;;;1.90;;
19358;SDS011;9815;52.334;20.890;2023-08-21T13:36:27;2.53;;;1.80;;
19358;SDS011;9815;52.334;20.890;2023-08-21T13:38:55;2.92;;;1.90;;
19358;SDS011;9815;52.334;20.890;2023-08-21T13:41:24;7.15;;;1.90;;
19358;SDS011;9815;52.334;20.890;2023-08-21T13:43:52;2.53;;;2.00;;
19358;SDS011;9815;52.334;20.890;2023-08-21T13:46:21;9.77;;;2.45;;
19358;SDS011;9815;52.334;20.890;2023-08-21T13:48:49;3.78;;;1.75;;
19358;SDS011;9815;52.334;20.890;2023-08-21T13:51:19;5.07;;;1.80;;
19358;SDS011;9815;52.334;20.890;2023-08-21T13:53:47;3.35;;;1.70;;
19358;SDS011;9815;52.334;20.890;2023-08-21T13:56:16;4.32;;;1.60;;
19358;SDS011;9815;52.334;20.890;2023-08-21T13:58:44;6.25;;;1.88;;
19358;SDS011;9815;52.334;20.890;2023-08-21T14:01:13;4.20;;;1.40;;
19358;SDS011;9815;52.334;20.890;2023-08-21T14:03:41;1.95;;;1.60;;
19358;SDS011;9815;52.334;20.890;2023-08-21T14:06:10;3.17;;;1.70;;
19358;SDS011;9815;52.334;20.890;2023-08-21T14:08:39;5.03;;;1.98;;
19358;SDS011;9815;52.334;20.890;2023-08-21T14:11:09;6.53;;;1.90;;
19358;SDS011;9815;52.334;20.890;2023-08-21T14:13:37;3.67;;;1.77;;
19358;SDS011;9815;52.334;20.890;2023-08-21T14:16:05;3.42;;;1.70;;
19358;SDS011;9815;52.334;20.890;2023-08-21T14:18:34;2.85;;;1.60;;
19358;SDS011;9815;52.334;20.890;2023-08-21T14:21:02;5.75;;;1.63;;
19358;SDS011;9815;52.334;20.890;2023-08-21T14:23:31;5.85;;;2.08;;
19358;SDS011;9815;52.334;20.890;2023-08-21T14:26:01;6.82;;;1.60;;
19358;SDS011;9815;52.334;20.890;2023-08-21T14:28:29;6.57;;;1.70;;
19358;SDS011;9815;52.334;20.890;2023-08-21T14:30:58;6.65;;;2.20;;
19358;SDS011;9815;52.334;20.890;2023-08-21T14:33:27;2.88;;;1.83;;
19358;SDS011;9815;52.334;20.890;2023-08-21T14:35:55;1.95;;;1.70;;
19358;SDS011;9815;52.334;20.890;2023-08-21T14:38:24;8.07;;;2.15;;
19358;SDS011;9815;52.334;20.890;2023-08-21T14:40:52;6.97;;;2.20;;
19358;SDS011;9815;52.334;20.890;2023-08-21T14:43:22;3.47;;;1.85;;
19358;SDS011;9815;52.334;20.890;2023-08-21T14:45:51;6.53;;;2.50;;